createdAt,value
2019-01-24T00:01:08.824Z,100091.16
2019-01-24T00:03:40.313Z,100090.71
2019-01-24T00:06:12.110Z,100090.71
2019-01-24T00:08:43.606Z,100106.73
2019-01-24T00:11:15.273Z,100099.45
2019-01-24T00:13:47.170Z,100099.70
2019-01-24T00:16:18.681Z,100094.58
2019-01-24T00:18:50.222Z,100095.13
2019-01-24T00:21:21.770Z,100097.21
2019-01-24T00:23:53.652Z,100095.44
2019-01-24T00:26:25.234Z,100098.98
2019-01-24T00:28:56.823Z,100100.18
2019-01-24T00:31:28.332Z,100106.08
2019-01-24T00:33:59.854Z,100114.95
2019-01-24T00:36:31.356Z,100116.08
2019-01-24T00:39:02.948Z,100119.09
2019-01-24T00:41:35.523Z,100119.50
2019-01-24T00:44:07.180Z,100116.83
2019-01-24T00:46:38.832Z,100120.20
2019-01-24T00:49:10.355Z,100117.19
2019-01-24T00:51:41.936Z,100117.12
2019-01-24T00:54:13.492Z,100118.91
2019-01-24T00:56:44.959Z,100120.95
2019-01-24T00:59:16.708Z,100122.13
2019-01-24T01:01:48.230Z,100129.92
2019-01-24T01:04:19.739Z,100136.27
2019-01-24T01:06:51.206Z,100138.94
2019-01-24T01:09:22.664Z,100133.38
2019-01-24T01:11:54.168Z,100141.87
2019-01-24T01:14:25.976Z,100137.66
2019-01-24T01:16:58.445Z,100135.47
2019-01-24T01:19:30.013Z,100137.14
2019-01-24T01:22:01.480Z,100142.30
2019-01-24T01:24:33.418Z,100143.98
2019-01-24T01:27:04.908Z,100139.83
2019-01-24T01:29:36.584Z,100145.69
2019-01-24T01:32:08.098Z,100141.00
2019-01-24T01:34:39.624Z,100140.08
2019-01-24T01:37:11.177Z,100142.22
2019-01-24T01:39:42.783Z,100143.48
2019-01-24T01:42:14.248Z,100151.98
2019-01-24T01:44:46.048Z,100142.66
2019-01-24T01:47:17.554Z,100149.03
2019-01-24T01:49:49.065Z,100148.70
2019-01-24T01:52:20.631Z,100154.76
2019-01-24T01:54:52.084Z,100149.13
2019-01-24T01:57:23.558Z,100156.75
2019-01-24T01:59:55.290Z,100154.67
2019-01-24T02:02:26.756Z,100153.53
2019-01-24T02:04:58.312Z,100154.50
2019-01-24T02:07:29.799Z,100148.39
2019-01-24T02:10:01.342Z,100142.38
2019-01-24T02:12:32.999Z,100147.30
2019-01-24T02:15:05.652Z,100148.80
2019-01-24T02:17:37.099Z,100150.58
2019-01-24T02:20:13.071Z,100146.25
2019-01-24T02:22:44.566Z,100152.61
2019-01-24T02:25:16.160Z,100151.81
2019-01-24T02:27:47.744Z,100155.13
2019-01-24T02:30:25.627Z,100161.70
2019-01-24T02:32:57.116Z,100161.61
2019-01-24T02:35:28.604Z,100157.43
2019-01-24T02:38:00.067Z,100163.38
2019-01-24T02:40:31.610Z,100166.41
2019-01-24T02:43:03.100Z,100165.92
2019-01-24T02:45:34.619Z,100172.23
2019-01-24T02:48:06.144Z,100167.11
2019-01-24T02:50:37.619Z,100159.36
2019-01-24T02:53:09.148Z,100156.78
2019-01-24T02:55:40.606Z,100160.50
2019-01-24T02:58:12.335Z,100166.61
2019-01-24T03:00:43.837Z,100175.76
2019-01-24T03:03:15.341Z,100177.06
2019-01-24T03:05:46.874Z,100180.48
2019-01-24T03:08:18.380Z,100191.09
2019-01-24T03:10:49.910Z,100185.16
2019-01-24T03:13:21.422Z,100186.05
2019-01-24T03:15:52.906Z,100189.41
2019-01-24T03:18:24.432Z,100193.41
2019-01-24T03:20:55.915Z,100193.58
2019-01-24T03:23:27.434Z,100197.08
2019-01-24T03:25:59.261Z,100201.07
2019-01-24T03:28:30.755Z,100207.06
2019-01-24T03:31:02.367Z,100207.84
2019-01-24T03:33:33.941Z,100199.34
2019-01-24T03:36:05.422Z,100199.48
2019-01-24T03:38:37.011Z,100202.95
2019-01-24T03:41:08.494Z,100202.39
2019-01-24T03:43:39.956Z,100207.48
2019-01-24T03:46:12.146Z,100207.98
2019-01-24T03:48:43.661Z,100205.83
2019-01-24T03:51:15.109Z,100217.08
2019-01-24T03:53:46.630Z,100216.23
2019-01-24T03:56:18.170Z,100220.44
2019-01-24T03:58:49.663Z,100212.67
2019-01-24T04:01:21.443Z,100215.11
2019-01-24T04:03:52.980Z,100224.52
2019-01-24T04:06:24.493Z,100220.69
2019-01-24T04:08:55.926Z,100220.33
2019-01-24T04:11:27.451Z,100217.73
2019-01-24T04:13:59.175Z,100219.89
2019-01-24T04:16:30.970Z,100219.54
2019-01-24T04:19:02.472Z,100223.48
2019-01-24T04:21:34.026Z,100227.27
2019-01-24T04:24:05.459Z,100224.77
2019-01-24T04:26:37.036Z,100228.20
2019-01-24T04:29:08.484Z,100233.33
2019-01-24T04:31:39.986Z,100236.02
2019-01-24T04:34:11.489Z,100236.34
2019-01-24T04:36:42.994Z,100234.27
2019-01-24T04:39:14.529Z,100235.19
2019-01-24T04:41:46.037Z,100241.09
2019-01-24T04:44:17.581Z,100243.23
2019-01-24T04:46:49.246Z,100245.30
2019-01-24T04:49:20.739Z,100249.96
2019-01-24T04:51:52.190Z,100250.33
2019-01-24T04:54:23.662Z,100245.70
2019-01-24T04:56:55.094Z,100250.91
2019-01-24T04:59:26.657Z,100254.41
2019-01-24T05:01:58.392Z,100255.61
2019-01-24T05:04:29.911Z,100257.27
2019-01-24T05:07:01.386Z,100257.08
2019-01-24T05:09:32.925Z,100265.16
2019-01-24T05:12:04.461Z,100260.83
2019-01-24T05:14:36.059Z,100261.66
2019-01-24T05:17:07.816Z,100265.60
2019-01-24T05:19:39.340Z,100263.86
2019-01-24T05:22:10.902Z,100270.31
2019-01-24T05:24:42.495Z,100270.73
2019-01-24T05:27:14.050Z,100263.58
2019-01-24T05:29:45.631Z,100269.48
2019-01-24T05:32:17.655Z,100268.66
2019-01-24T05:34:49.138Z,100265.34
2019-01-24T05:37:20.583Z,100265.72
2019-01-24T05:39:52.066Z,100263.89
2019-01-24T05:42:23.616Z,100263.52
2019-01-24T05:44:55.080Z,100263.59
2019-01-24T05:47:26.918Z,100269.17
2019-01-24T05:49:58.370Z,100271.22
2019-01-24T05:52:29.856Z,100269.92
2019-01-24T05:55:01.307Z,100265.34
2019-01-24T05:57:32.825Z,100275.97
2019-01-24T06:00:05.108Z,100283.23
2019-01-24T06:02:36.856Z,100281.55
2019-01-24T06:05:09.353Z,100279.35
2019-01-24T06:07:40.958Z,100290.10
2019-01-24T06:10:15.288Z,100292.19
2019-01-24T06:12:46.852Z,100293.11
2019-01-24T06:15:18.369Z,100293.92
2019-01-24T06:17:51.163Z,100297.80
2019-01-24T06:20:22.740Z,100300.32
2019-01-24T06:22:54.267Z,100295.20
2019-01-24T06:25:25.780Z,100293.08
2019-01-24T06:27:57.597Z,100296.88
2019-01-24T06:30:29.112Z,100303.72
2019-01-24T06:33:00.778Z,100306.59
2019-01-24T06:35:32.394Z,100308.71
2019-01-24T06:38:03.895Z,100310.91
2019-01-24T06:40:35.399Z,100320.25
2019-01-24T06:43:06.941Z,100318.58
2019-01-24T06:45:38.447Z,100322.06
2019-01-24T06:48:10.225Z,100326.30
2019-01-24T06:50:42.156Z,100326.30
2019-01-24T06:53:13.652Z,100332.69
2019-01-24T06:55:45.154Z,100338.73
2019-01-24T06:58:16.649Z,100340.01
2019-01-24T07:00:48.212Z,100337.94
2019-01-24T07:03:20.345Z,100344.70
2019-01-24T07:05:55.329Z,100345.59
2019-01-24T07:08:25.138Z,100353.37
2019-01-24T07:10:56.680Z,100352.05
2019-01-24T07:13:28.181Z,100360.16
2019-01-24T07:15:59.944Z,100364.02
2019-01-24T07:18:31.432Z,100370.45
2019-01-24T07:21:02.974Z,100366.59
2019-01-24T07:23:34.477Z,100378.14
2019-01-24T07:26:06.010Z,100381.15
2019-01-24T07:28:37.767Z,100386.27
2019-01-24T07:31:09.259Z,100375.17
2019-01-24T07:33:40.840Z,100386.23
2019-01-24T07:36:12.355Z,100365.80
2019-01-24T07:38:43.809Z,100392.25
2019-01-24T07:41:15.370Z,100385.77
2019-01-24T07:43:46.830Z,100390.89
2019-01-24T07:46:18.350Z,100397.78
2019-01-24T07:48:50.201Z,100404.61
2019-01-24T07:51:21.742Z,100401.67
2019-01-24T07:53:53.311Z,100403.29
2019-01-24T07:56:24.887Z,100402.38
2019-01-24T07:58:56.330Z,100407.48
2019-01-24T08:01:27.838Z,100406.22
2019-01-24T08:03:59.629Z,100408.41
2019-01-24T08:06:31.125Z,100417.84
2019-01-24T08:09:02.627Z,100406.22
2019-01-24T08:11:34.078Z,100413.08
2019-01-24T08:14:05.728Z,100410.08
2019-01-24T08:16:37.271Z,100411.75
2019-01-24T08:19:09.066Z,100410.47
2019-01-24T08:21:40.522Z,100416.44
2019-01-24T08:24:12.370Z,100411.72
2019-01-24T08:26:43.845Z,100413.84
2019-01-24T08:29:15.714Z,100413.84
2019-01-24T08:31:47.176Z,100419.83
2019-01-24T08:34:19.046Z,100425.39
2019-01-24T08:36:50.515Z,100422.34
2019-01-24T08:39:22.088Z,100429.70
2019-01-24T08:41:53.598Z,100424.50
2019-01-24T08:44:25.134Z,100430.90
2019-01-24T08:46:56.990Z,100426.29
2019-01-24T08:49:28.845Z,100437.34
2019-01-24T08:52:00.352Z,100436.47
2019-01-24T08:54:31.954Z,100434.75
2019-01-24T08:57:03.505Z,100433.39
2019-01-24T08:59:35.131Z,100442.36
2019-01-24T09:02:06.604Z,100448.94
2019-01-24T09:04:38.405Z,100442.02
2019-01-24T09:07:09.936Z,100444.95
2019-01-24T09:09:41.410Z,100447.97
2019-01-24T09:12:12.892Z,100453.08
2019-01-24T09:14:44.385Z,100458.23
2019-01-24T09:17:15.865Z,100463.29
2019-01-24T09:19:47.744Z,100469.70
2019-01-24T09:22:19.218Z,100476.52
2019-01-24T09:24:50.670Z,100469.25
2019-01-24T09:27:22.246Z,100461.52
2019-01-24T09:29:53.990Z,100463.63
2019-01-24T09:32:25.515Z,100462.23
2019-01-24T09:34:57.202Z,100463.91
2019-01-24T09:37:28.735Z,100470.31
2019-01-24T09:40:00.325Z,100464.83
2019-01-24T09:42:31.797Z,100467.30
2019-01-24T09:45:03.267Z,100465.02
2019-01-24T09:47:34.823Z,100461.85
2019-01-24T09:50:09.328Z,100467.61
2019-01-24T09:52:40.821Z,100470.19
2019-01-24T09:55:12.295Z,100472.21
2019-01-24T09:57:43.856Z,100470.44
2019-01-24T10:00:22.189Z,100465.59
2019-01-24T10:02:53.694Z,100459.80
2019-01-24T10:05:25.459Z,100463.98
2019-01-24T10:07:57.004Z,100466.38
2019-01-24T10:10:28.614Z,100464.20
2019-01-24T10:13:00.358Z,100461.11
2019-01-24T10:15:31.846Z,100455.27
2019-01-24T10:18:03.430Z,100442.16
2019-01-24T10:20:35.134Z,100442.13
2019-01-24T10:23:06.749Z,100444.84
2019-01-24T10:25:44.285Z,100444.34
2019-01-24T10:28:15.844Z,100437.88
2019-01-24T10:30:47.617Z,100442.17
2019-01-24T10:33:19.117Z,100445.72
2019-01-24T10:35:50.850Z,100441.77
2019-01-24T10:38:22.402Z,100443.19
2019-01-24T10:40:53.964Z,100444.77
2019-01-24T10:43:25.528Z,100437.08
2019-01-24T10:45:56.994Z,100428.26
2019-01-24T10:48:29.712Z,100416.61
2019-01-24T10:51:01.642Z,100411.80
2019-01-24T10:53:33.158Z,100409.13
2019-01-24T10:56:04.646Z,100411.19
2019-01-24T10:58:36.175Z,100418.38
2019-01-24T11:01:07.803Z,100414.03
2019-01-24T11:03:39.265Z,100416.23
2019-01-24T11:06:11.047Z,100423.32
2019-01-24T11:08:42.542Z,100415.55
2019-01-24T11:11:14.105Z,100406.98
2019-01-24T11:13:45.552Z,100410.34
2019-01-24T11:16:17.164Z,100409.25
2019-01-24T11:18:48.768Z,100414.79
2019-01-24T11:21:20.626Z,100418.38
2019-01-24T11:23:52.123Z,100418.92
2019-01-24T14:24:05.176Z,100383.88
2019-01-24T14:26:36.958Z,100387.29
2019-01-24T14:29:08.431Z,100381.80
2019-01-24T14:31:39.932Z,100388.16
2019-01-24T14:34:11.410Z,100394.50
2019-01-24T14:36:43.068Z,100390.49
2019-01-24T14:39:14.543Z,100384.45
2019-01-24T14:41:46.079Z,100380.39
2019-01-24T14:44:17.555Z,100387.56
2019-01-24T14:46:49.146Z,100380.56
2019-01-24T14:49:20.626Z,100379.80
2019-01-24T14:51:52.143Z,100382.56
2019-01-24T14:54:23.759Z,100392.08
2019-01-24T14:56:55.325Z,100381.51
2019-01-24T14:59:26.751Z,100383.97
2019-01-24T15:01:58.369Z,100386.84
2019-01-24T15:04:29.914Z,100388.30
2019-01-24T15:07:01.746Z,100383.22
2019-01-24T15:09:33.360Z,100390.09
2019-01-24T15:12:04.914Z,100393.63
2019-01-24T15:14:36.428Z,100387.59
2019-01-24T15:17:07.912Z,100387.70
2019-01-24T15:19:39.911Z,100389.89
2019-01-24T15:22:11.413Z,100387.86
2019-01-24T15:24:43.028Z,100389.98
2019-01-24T15:27:14.593Z,100391.84
2019-01-24T15:29:46.102Z,100393.58
2019-01-24T15:32:17.581Z,100393.66
2019-01-24T15:34:49.322Z,100397.05
2019-01-24T15:37:21.137Z,100403.53
2019-01-24T15:39:52.629Z,100404.36
2019-01-24T15:42:25.397Z,100411.38
2019-01-24T15:44:57.914Z,100407.05
2019-01-24T15:47:29.414Z,100417.39
2019-01-24T15:50:01.551Z,100418.39
2019-01-24T15:52:34.154Z,100422.15
2019-01-24T15:55:06.316Z,100423.00
2019-01-24T15:57:37.882Z,100417.05
2019-01-24T16:00:15.506Z,100406.85
2019-01-24T16:02:47.116Z,100418.43
2019-01-24T16:05:19.683Z,100417.58
2019-01-24T16:07:51.153Z,100418.14
2019-01-24T16:10:23.475Z,100421.04
2019-01-24T16:12:56.125Z,100421.96
2019-01-24T16:15:36.161Z,100428.74
2019-01-24T16:18:10.983Z,100427.91
2019-01-24T16:20:42.458Z,100436.17
2019-01-24T16:23:14.051Z,100444.22
2019-01-24T16:25:46.234Z,100442.08
2019-01-24T16:28:24.465Z,100445.52
2019-01-24T16:30:51.174Z,100445.10
2019-01-24T16:33:23.320Z,100442.50
2019-01-24T16:35:54.865Z,100450.22
2019-01-24T16:38:26.624Z,100442.16
2019-01-24T16:40:59.313Z,100444.22
2019-01-24T16:43:31.079Z,100444.24
2019-01-24T16:46:02.589Z,100445.12
2019-01-24T16:48:34.184Z,100444.24
2019-01-24T16:51:06.093Z,100447.22
2019-01-24T16:53:37.614Z,100442.17
2019-01-24T16:56:09.146Z,100449.41
2019-01-24T16:58:40.788Z,100451.14
2019-01-24T17:01:22.836Z,100439.26
2019-01-24T17:03:54.365Z,100449.43
2019-01-24T17:06:26.447Z,100435.05
2019-01-24T17:08:57.986Z,100441.36
2019-01-24T17:11:30.583Z,100447.77
2019-01-24T17:14:02.211Z,100449.12
2019-01-24T17:16:33.991Z,100442.36
2019-01-24T17:19:05.669Z,100444.48
2019-01-24T17:21:37.513Z,100443.09
2019-01-24T17:24:09.018Z,100446.20
2019-01-24T17:26:40.895Z,100439.27
2019-01-24T17:29:12.526Z,100445.66
2019-01-24T17:31:44.046Z,100442.30
2019-01-24T17:34:15.710Z,100444.84
2019-01-24T17:36:47.639Z,100435.97
2019-01-24T17:39:19.108Z,100434.23
2019-01-24T17:41:50.698Z,100444.95
2019-01-24T17:44:22.371Z,100450.16
2019-01-24T17:46:54.119Z,100456.50
2019-01-24T17:49:25.703Z,100451.05
2019-01-24T17:51:57.725Z,100455.77
2019-01-24T17:54:29.247Z,100453.70
2019-01-24T17:57:00.868Z,100450.17
2019-01-24T17:59:32.372Z,100448.89
2019-01-24T18:02:03.909Z,100450.16
2019-01-24T18:04:35.449Z,100465.19
2019-01-24T18:07:07.340Z,100458.78
2019-01-24T18:09:39.930Z,100458.31
2019-01-24T18:12:11.813Z,100469.88
2019-01-24T18:14:43.286Z,100464.35
2019-01-24T18:17:15.994Z,100460.95
2019-01-24T18:19:47.531Z,100465.19
2019-01-24T18:22:19.075Z,100472.05
2019-01-24T18:24:50.553Z,100472.01
2019-01-24T18:27:22.074Z,100476.81
2019-01-24T18:29:53.745Z,100477.70
2019-01-24T18:32:25.359Z,100480.67
2019-01-24T18:34:56.876Z,100482.32
2019-01-24T18:37:28.647Z,100493.05
2019-01-24T18:40:00.190Z,100490.09
2019-01-24T18:42:31.745Z,100482.78
2019-01-24T18:45:03.427Z,100479.37
2019-01-24T18:47:35.111Z,100478.55
2019-01-24T18:50:10.799Z,100480.27
2019-01-24T18:52:42.877Z,100481.95
2019-01-24T18:55:14.728Z,100485.84
2019-01-24T18:57:48.439Z,100480.72
2019-01-24T19:00:30.076Z,100480.70
2019-01-24T19:03:01.700Z,100480.27
2019-01-24T19:05:33.417Z,100485.45
2019-01-24T19:08:05.214Z,100489.33
2019-01-24T19:10:37.129Z,100490.58
2019-01-24T19:13:10.031Z,100487.58
2019-01-24T19:15:48.050Z,100493.58
2019-01-24T19:18:21.080Z,100488.08
2019-01-24T19:20:52.931Z,100490.20
2019-01-24T19:23:25.549Z,100486.38
2019-01-24T19:25:57.733Z,100497.90
2019-01-24T19:28:29.692Z,100493.64
2019-01-24T19:31:01.560Z,100491.48
2019-01-24T19:33:33.528Z,100493.64
2019-01-24T19:36:05.301Z,100489.77
2019-01-24T19:38:37.397Z,100488.48
2019-01-24T19:41:09.372Z,100493.18
2019-01-24T19:43:41.022Z,100489.73
2019-01-24T19:46:13.256Z,100492.33
2019-01-24T19:48:45.137Z,100488.08
2019-01-24T19:51:16.648Z,100491.92
2019-01-24T19:53:48.913Z,100498.31
2019-01-24T19:56:20.528Z,100494.43
2019-01-24T19:58:52.020Z,100497.91
2019-01-24T20:01:23.731Z,100498.31
2019-01-24T20:03:55.371Z,100502.18
2019-01-24T20:06:26.850Z,100504.31
2019-01-24T20:09:00.428Z,100502.20
2019-01-24T20:11:31.929Z,100502.20
2019-01-24T20:14:03.499Z,100500.47
2019-01-24T20:16:35.050Z,100501.74
2019-01-24T20:19:06.592Z,100508.16
2019-01-24T20:21:38.141Z,100499.20
2019-01-24T20:24:10.058Z,100499.62
2019-01-24T20:26:41.705Z,100505.17
2019-01-24T20:29:13.166Z,100501.33
2019-01-24T20:31:44.681Z,100509.44
2019-01-24T20:34:16.299Z,100500.05
2019-01-24T20:36:48.143Z,100497.89
2019-01-24T20:39:20.021Z,100494.45
2019-01-24T20:41:51.614Z,100492.77
2019-01-24T20:44:24.425Z,100485.07
2019-01-24T20:46:55.980Z,100482.91
2019-01-24T20:49:28.725Z,100489.77
2019-01-24T20:52:00.241Z,100488.07
2019-01-24T20:54:32.032Z,100488.48
2019-01-24T20:57:03.620Z,100489.38
2019-01-24T20:59:35.348Z,100490.23
2019-01-24T21:02:07.761Z,100491.92
2019-01-24T21:04:39.579Z,100495.78
2019-01-24T21:07:12.269Z,100495.77
2019-01-24T21:09:45.010Z,100493.61
2019-01-24T21:12:17.242Z,100504.72
2019-01-24T21:14:49.656Z,100482.52
2019-01-24T21:17:21.330Z,100503.03
2019-01-24T21:19:53.041Z,100500.00
2019-01-24T21:22:25.079Z,100500.88
2019-01-24T21:24:56.694Z,100507.29
2019-01-24T21:27:28.941Z,100505.15
2019-01-24T21:30:02.166Z,100511.59
2019-01-24T21:32:33.969Z,100511.16
2019-01-24T21:35:06.037Z,100504.28
2019-01-24T21:37:37.550Z,100508.98
2019-01-24T21:40:11.698Z,100503.47
2019-01-24T21:42:43.322Z,100506.89
2019-01-24T21:45:21.308Z,100503.44
2019-01-24T21:47:53.102Z,100500.91
2019-01-24T21:50:26.049Z,100505.18
2019-01-24T21:52:57.711Z,100503.02
2019-01-24T21:55:29.665Z,100506.00
2019-01-24T21:58:02.343Z,100496.59
2019-01-24T22:00:35.010Z,100498.31
2019-01-24T22:03:06.908Z,100494.05
2019-01-24T22:05:38.464Z,100491.48
2019-01-24T22:08:10.103Z,100490.61
2019-01-24T22:10:41.980Z,100480.81
2019-01-24T22:13:13.511Z,100487.23
2019-01-24T22:15:44.991Z,100479.53
2019-01-24T22:18:16.580Z,100481.66
2019-01-24T22:20:48.219Z,100482.97
2019-01-24T22:23:19.826Z,100492.35
2019-01-24T22:25:51.617Z,100489.38
2019-01-24T22:28:23.091Z,100487.66
2019-01-24T22:30:57.115Z,100488.48
2019-01-24T22:33:28.700Z,100481.66
2019-01-24T22:36:00.153Z,100484.66
2019-01-24T22:38:31.682Z,100479.09
2019-01-24T22:41:03.409Z,100477.81
2019-01-24T22:43:34.958Z,100468.42
2019-01-24T22:46:06.424Z,100459.88
2019-01-24T22:48:37.904Z,100454.75
2019-01-24T22:51:09.384Z,100455.20
2019-01-24T22:53:40.908Z,100450.50
2019-01-24T22:56:12.403Z,100450.93
2019-01-24T22:58:43.889Z,100448.78
2019-01-24T23:01:41.750Z,100448.34
2019-01-24T23:04:20.259Z,100448.78
2019-01-24T23:06:51.785Z,100449.63
2019-01-24T23:09:24.105Z,100448.80
2019-01-24T23:11:55.824Z,100447.50
2019-01-24T23:14:27.259Z,100447.91
2019-01-24T23:16:58.787Z,100451.76
2019-01-24T23:19:30.311Z,100456.89
2019-01-24T23:22:02.892Z,100453.45
2019-01-24T23:24:34.461Z,100450.86
2019-01-24T23:27:06.364Z,100452.20
2019-01-24T23:29:37.878Z,100450.89
2019-01-24T23:32:09.446Z,100444.03
2019-01-24T23:34:40.873Z,100442.35
2019-01-24T23:37:12.401Z,100443.16
2019-01-24T23:39:43.879Z,100438.94
2019-01-24T23:42:15.679Z,100428.71
2019-01-24T23:44:47.383Z,100433.81
2019-01-24T23:47:18.896Z,100432.11
2019-01-24T23:49:50.357Z,100422.68
2019-01-24T23:52:21.911Z,100422.71
2019-01-24T23:54:53.358Z,100414.14
2019-01-24T23:57:25.203Z,100411.14
2019-01-24T23:59:56.700Z,100409.02
